Time;durP1;ratioP1;P1;durP2;ratioP2;P2;SDS_P1;SDS_P2;PMS_P1;PMS_P2;Temp;Humidity;BMP_temperature;BMP_pressure;BME280_temperature;BME280_humidity;BME280_pressure;Samples;Min_cycle;Max_cycle;Signal;HPM_P1;HPM_P2
2022/03/31 00:00:34;;;;;;;26.10;15.95;;;9.40;82.60;;;;;;5135954;27;20781;-57
2022/03/31 00:03:03;;;;;;;27.08;16.17;;;9.40;82.50;;;;;;5136021;27;20222;-57
2022/03/31 00:05:29;;;;;;;29.55;17.17;;;9.20;82.60;;;;;;5135805;27;20202;-57
2022/03/31 00:07:59;;;;;;;26.60;15.73;;;9.20;82.80;;;;;;5135642;27;20217;-57
2022/03/31 00:10:28;;;;;;;30.48;17.40;;;9.40;82.80;;;;;;5134966;27;20229;-57
2022/03/31 00:12:56;;;;;;;28.17;16.88;;;9.40;82.50;;;;;;5135864;27;20199;-57
2022/03/31 00:15:23;;;;;;;28.23;16.40;;;9.50;82.30;;;;;;5135841;27;20241;-57
2022/03/31 00:17:51;;;;;;;31.05;18.35;;;9.50;81.90;;;;;;5135712;27;20252;-57
2022/03/31 00:20:18;;;;;;;28.95;16.25;;;9.50;81.80;;;;;;5135641;27;20298;-57
2022/03/31 00:22:45;;;;;;;24.20;15.43;;;9.50;81.50;;;;;;5135527;27;20230;-57
2022/03/31 00:25:13;;;;;;;29.17;17.30;;;9.40;81.90;;;;;;5134693;27;20203;-57
2022/03/31 00:27:40;;;;;;;25.65;17.10;;;9.30;82.20;;;;;;5134095;27;20609;-57
2022/03/31 00:30:10;;;;;;;30.92;17.10;;;9.30;82.40;;;;;;5135357;27;20329;-58
2022/03/31 00:32:37;;;;;;;34.13;17.77;;;9.30;82.40;;;;;;5135558;27;20556;-58
2022/03/31 00:35:07;;;;;;;25.10;15.93;;;9.30;82.40;;;;;;5135132;27;20291;-58
2022/03/31 00:37:34;;;;;;;26.85;16.25;;;9.20;82.30;;;;;;5135171;27;20226;-57
2022/03/31 00:40:02;;;;;;;27.98;17.42;;;9.20;82.60;;;;;;5135263;27;20256;-57
2022/03/31 00:42:29;;;;;;;27.90;17.17;;;9.30;82.40;;;;;;5133936;27;20230;-57
2022/03/31 00:44:56;;;;;;;26.77;16.45;;;9.20;82.60;;;;;;5135243;27;20209;-58
2022/03/31 00:47:23;;;;;;;29.38;16.58;;;9.10;82.40;;;;;;5135067;27;20217;-57
2022/03/31 00:49:50;;;;;;;28.25;15.63;;;9.10;82.80;;;;;;5134936;27;20198;-57
2022/03/31 00:52:18;;;;;;;27.30;17.38;;;9.00;82.70;;;;;;5135090;27;20207;-57
2022/03/31 00:54:45;;;;;;;29.13;17.40;;;9.00;82.80;;;;;;5134869;27;20234;-57
2022/03/31 00:57:14;;;;;;;27.52;16.10;;;9.00;82.50;;;;;;5133648;27;20229;-57
2022/03/31 00:59:41;;;;;;;27.92;16.13;;;9.10;82.40;;;;;;5134780;27;20241;-57
2022/03/31 01:02:08;;;;;;;29.30;15.70;;;9.20;82.30;;;;;;5134798;27;20285;-58
2022/03/31 01:04:35;;;;;;;25.83;16.10;;;9.20;82.20;;;;;;5134771;27;20207;-57
2022/03/31 01:07:03;;;;;;;27.35;16.42;;;9.20;81.90;;;;;;5134833;27;20234;-57
2022/03/31 01:09:32;;;;;;;29.17;16.48;;;9.30;81.70;;;;;;5134499;27;20618;-57
2022/03/31 01:12:01;;;;;;;28.17;16.30;;;9.30;81.60;;;;;;5133592;27;20203;-57
2022/03/31 01:14:28;;;;;;;23.75;15.10;;;9.30;81.40;;;;;;5134725;27;20206;-58
2022/03/31 01:16:55;;;;;;;25.85;15.35;;;9.30;81.40;;;;;;5134447;27;20222;-57
2022/03/31 01:19:22;;;;;;;27.30;15.85;;;9.30;81.30;;;;;;5134704;27;20205;-58
2022/03/31 01:21:50;;;;;;;23.48;14.90;;;9.30;81.50;;;;;;5134510;27;20202;-57
2022/03/31 01:24:18;;;;;;;22.58;14.70;;;9.30;81.10;;;;;;5134491;27;20391;-57
2022/03/31 01:26:45;;;;;;;22.52;14.57;;;9.30;81.00;;;;;;5133174;27;20230;-58
2022/03/31 01:29:12;;;;;;;22.88;14.88;;;9.10;81.40;;;;;;5134209;27;20590;-57
2022/03/31 01:31:39;;;;;;;24.83;15.10;;;9.00;81.70;;;;;;5134229;27;20281;-57
2022/03/31 01:34:07;;;;;;;26.17;15.52;;;9.10;81.70;;;;;;5134147;27;20202;-57
2022/03/31 01:36:34;;;;;;;18.58;13.15;;;9.10;81.40;;;;;;5133621;27;20199;-57
2022/03/31 01:39:01;;;;;;;24.58;15.82;;;9.10;81.00;;;;;;5133806;27;20198;-58
2022/03/31 01:41:29;;;;;;;22.85;14.35;;;8.90;81.70;;;;;;5132848;27;20281;-57
2022/03/31 01:43:56;;;;;;;23.85;14.98;;;8.90;81.80;;;;;;5134016;27;20721;-58
2022/03/31 01:46:24;;;;;;;21.00;13.05;;;9.00;81.80;;;;;;5133990;27;20293;-57
2022/03/31 01:48:52;;;;;;;26.08;15.75;;;9.00;81.50;;;;;;5134082;27;20289;-57
2022/03/31 01:51:19;;;;;;;21.27;13.43;;;9.00;81.50;;;;;;5134057;27;20293;-57
2022/03/31 01:53:47;;;;;;;18.70;13.13;;;8.90;81.10;;;;;;5133874;27;20207;-57
2022/03/31 01:56:14;;;;;;;23.10;14.85;;;8.80;80.80;;;;;;5132610;27;20286;-58
2022/03/31 01:58:42;;;;;;;22.02;13.88;;;8.70;81.40;;;;;;5133575;27;20229;-58
2022/03/31 02:01:09;;;;;;;20.95;13.65;;;8.70;81.50;;;;;;5133976;27;20203;-57
2022/03/31 02:03:36;;;;;;;22.02;13.73;;;8.70;81.30;;;;;;5133718;27;20256;-58
2022/03/31 02:06:03;;;;;;;23.63;13.65;;;8.70;81.30;;;;;;5133872;27;20247;-57
2022/03/31 02:08:30;;;;;;;24.50;14.80;;;8.60;81.20;;;;;;5133569;27;20199;-57
2022/03/31 02:10:57;;;;;;;20.27;14.02;;;8.50;81.50;;;;;;5132448;27;20677;-57
2022/03/31 02:13:24;;;;;;;21.40;13.40;;;8.40;82.00;;;;;;5133678;27;20207;-57
2022/03/31 02:15:54;;;;;;;22.48;13.65;;;8.30;82.40;;;;;;5133790;27;20202;-57
2022/03/31 02:18:21;;;;;;;21.10;13.73;;;8.20;82.60;;;;;;5133679;27;20722;-58
2022/03/31 02:20:48;;;;;;;23.35;14.43;;;8.10;82.70;;;;;;5133681;27;20285;-58
2022/03/31 02:23:15;;;;;;;21.30;14.10;;;8.00;83.00;;;;;;5133663;27;20237;-57
2022/03/31 02:25:43;;;;;;;19.92;13.95;;;8.00;83.30;;;;;;5132269;27;20414;-58
2022/03/31 02:28:10;;;;;;;20.90;13.27;;;8.00;83.70;;;;;;5133581;27;20211;-57
2022/03/31 02:30:38;;;;;;;21.58;14.00;;;8.00;83.50;;;;;;5133507;27;20230;-57
2022/03/31 02:33:07;;;;;;;18.55;12.43;;;8.00;83.90;;;;;;5133606;27;20220;-57
2022/03/31 02:35:33;;;;;;;21.25;14.65;;;7.90;83.90;;;;;;5133568;27;20289;-58
2022/03/31 02:38:00;;;;;;;22.30;13.35;;;7.90;84.00;;;;;;5133617;27;20236;-57
2022/03/31 02:40:27;;;;;;;20.73;13.73;;;7.90;84.10;;;;;;5132448;27;20226;-55
2022/03/31 02:42:54;;;;;;;22.60;14.38;;;8.00;83.60;;;;;;5133552;27;20199;-56
2022/03/31 02:45:21;;;;;;;24.35;14.68;;;8.00;83.10;;;;;;5133457;27;20660;-56
2022/03/31 02:47:49;;;;;;;20.35;13.85;;;8.10;83.10;;;;;;5133374;27;20213;-56
2022/03/31 02:50:18;;;;;;;20.00;13.52;;;8.10;83.00;;;;;;5137253;27;20573;-56
2022/03/31 02:55:30;;;;;;;19.70;13.00;;;8.00;83.60;;;;;;5136176;27;20201;-56
2022/03/31 02:58:00;;;;;;;19.08;13.18;;;8.10;83.40;;;;;;5137260;27;20297;-56
2022/03/31 03:00:28;;;;;;;20.13;13.15;;;8.30;83.20;;;;;;5137492;27;20198;-56
2022/03/31 03:02:55;;;;;;;23.38;14.95;;;8.20;83.40;;;;;;5137251;27;20203;-56
2022/03/31 03:05:23;;;;;;;24.45;14.50;;;8.20;82.60;;;;;;5137050;27;20207;-56
2022/03/31 03:07:50;;;;;;;21.98;14.25;;;8.20;82.50;;;;;;5137143;27;20209;-56
2022/03/31 03:10:17;;;;;;;21.65;14.05;;;8.30;82.50;;;;;;5136912;27;20310;-56
2022/03/31 03:12:44;;;;;;;28.17;15.68;;;8.20;82.40;;;;;;5135782;27;20293;-56
2022/03/31 03:15:11;;;;;;;21.30;15.13;;;8.30;82.60;;;;;;5136971;27;20203;-57
2022/03/31 03:17:42;;;;;;;24.55;15.20;;;8.30;82.40;;;;;;5136757;27;20724;-56
2022/03/31 03:20:13;;;;;;;25.35;16.45;;;8.40;81.80;;;;;;5136889;27;20199;-56
2022/03/31 03:22:42;;;;;;;22.02;15.80;;;8.40;81.40;;;;;;5136890;27;20256;-56
2022/03/31 03:25:10;;;;;;;24.60;15.90;;;8.30;81.00;;;;;;5136658;27;20209;-56
2022/03/31 03:27:37;;;;;;;27.58;16.08;;;8.20;81.30;;;;;;5135515;27;20202;-56
2022/03/31 03:30:06;;;;;;;22.70;14.73;;;8.30;81.40;;;;;;5136500;27;20719;-56
2022/03/31 03:32:33;;;;;;;23.23;15.40;;;8.30;81.20;;;;;;5136407;27;20199;-56
2022/03/31 03:35:00;;;;;;;23.65;15.88;;;8.20;81.00;;;;;;5136535;27;20661;-56
2022/03/31 03:37:27;;;;;;;26.38;16.35;;;8.20;81.20;;;;;;5136513;27;20753;-56
2022/03/31 03:39:55;;;;;;;20.70;14.98;;;8.00;81.00;;;;;;5136410;27;20293;-56
2022/03/31 03:42:22;;;;;;;25.73;15.95;;;7.90;81.40;;;;;;5135021;27;20298;-56
2022/03/31 03:44:49;;;;;;;25.48;15.90;;;7.80;81.70;;;;;;5136358;27;20241;-56
2022/03/31 03:47:16;;;;;;;25.23;16.58;;;7.80;82.00;;;;;;5136166;27;20227;-56
2022/03/31 03:49:42;;;;;;;26.75;16.50;;;7.90;82.00;;;;;;5136332;27;20285;-56
2022/03/31 03:52:09;;;;;;;25.65;17.42;;;8.00;81.30;;;;;;5136365;27;20648;-56
2022/03/31 03:54:36;;;;;;;28.10;17.58;;;8.00;81.30;;;;;;5136086;27;20210;-56
2022/03/31 03:57:05;;;;;;;22.88;15.55;;;8.00;81.00;;;;;;5134863;27;20203;-56
2022/03/31 03:59:32;;;;;;;26.98;16.13;;;7.90;81.30;;;;;;5135601;27;20217;-56
2022/03/31 04:02:00;;;;;;;25.30;15.98;;;7.90;81.70;;;;;;5135436;27;20657;-56
2022/03/31 04:04:27;;;;;;;26.50;16.30;;;7.90;81.20;;;;;;5135981;27;20209;-56
2022/03/31 04:06:54;;;;;;;27.55;17.35;;;7.90;81.40;;;;;;5135923;27;20658;-56
2022/03/31 04:09:21;;;;;;;27.58;16.38;;;7.90;81.50;;;;;;5135664;27;20226;-56
2022/03/31 04:11:48;;;;;;;23.73;16.65;;;8.00;81.20;;;;;;5134536;27;20310;-56
2022/03/31 04:14:17;;;;;;;24.75;16.63;;;8.00;80.90;;;;;;5135751;27;20195;-56
2022/03/31 04:16:44;;;;;;;27.77;17.23;;;8.10;80.90;;;;;;5135843;27;20233;-56
2022/03/31 04:19:11;;;;;;;26.02;16.45;;;8.10;80.70;;;;;;5135669;27;20222;-56
2022/03/31 04:21:38;;;;;;;26.83;16.58;;;8.10;80.50;;;;;;5135713;27;20217;-56
2022/03/31 04:24:06;;;;;;;26.48;16.77;;;8.00;80.60;;;;;;5135457;27;20210;-56
2022/03/31 04:26:34;;;;;;;25.38;16.00;;;8.00;80.50;;;;;;5134324;27;20203;-56
2022/03/31 04:29:01;;;;;;;27.35;16.42;;;8.00;80.30;;;;;;5135351;27;20206;-56
2022/03/31 04:31:30;;;;;;;22.92;16.08;;;8.00;80.20;;;;;;5135494;27;20199;-56
2022/03/31 04:33:57;;;;;;;27.33;16.90;;;7.90;80.30;;;;;;5135230;27;20202;-56
2022/03/31 04:36:24;;;;;;;26.60;16.75;;;7.90;80.50;;;;;;5135469;27;20195;-56
2022/03/31 04:38:51;;;;;;;26.15;16.98;;;7.90;80.50;;;;;;5134940;27;20772;-56
2022/03/31 04:41:17;;;;;;;24.08;16.85;;;7.80;80.70;;;;;;5134035;27;20213;-56
2022/03/31 04:43:44;;;;;;;26.40;16.88;;;7.80;80.70;;;;;;5135297;27;20251;-56
2022/03/31 04:46:11;;;;;;;26.00;17.08;;;7.80;80.70;;;;;;5135177;27;20289;-56
2022/03/31 04:48:40;;;;;;;28.65;17.58;;;7.80;80.70;;;;;;5135063;27;20225;-56
2022/03/31 04:51:06;;;;;;;26.48;16.58;;;7.70;81.00;;;;;;5135071;27;20207;-56
2022/03/31 04:53:33;;;;;;;26.48;16.42;;;7.50;81.10;;;;;;5134984;27;20198;-56
2022/03/31 04:56:00;;;;;;;27.33;18.55;;;7.50;81.40;;;;;;5133542;27;20210;-56
2022/03/31 04:58:28;;;;;;;27.77;17.17;;;7.50;81.40;;;;;;5134916;27;20237;-56
2022/03/31 05:00:55;;;;;;;27.83;16.98;;;7.60;81.20;;;;;;5134789;27;20233;-56
2022/03/31 05:03:22;;;;;;;27.17;16.88;;;7.60;81.00;;;;;;5134825;27;20290;-56
2022/03/31 05:05:50;;;;;;;33.08;19.20;;;7.60;81.10;;;;;;5134967;27;20213;-56
2022/03/31 05:08:17;;;;;;;27.48;17.70;;;7.60;81.20;;;;;;5134547;27;20305;-56
2022/03/31 05:10:45;;;;;;;28.38;17.98;;;7.50;81.20;;;;;;5133260;27;20234;-56
2022/03/31 05:13:12;;;;;;;31.63;19.02;;;7.50;81.40;;;;;;5134449;27;20561;-56
2022/03/31 05:15:39;;;;;;;29.00;17.20;;;7.40;81.40;;;;;;5134678;27;20221;-56
2022/03/31 05:18:06;;;;;;;29.80;18.17;;;7.40;81.40;;;;;;5134568;27;20231;-56
2022/03/31 05:20:34;;;;;;;33.03;18.08;;;7.40;81.40;;;;;;5134444;27;20222;-56
2022/03/31 05:23:02;;;;;;;27.95;16.83;;;7.40;81.40;;;;;;5134262;27;20281;-56
2022/03/31 05:25:29;;;;;;;25.95;16.35;;;7.40;81.30;;;;;;5133420;27;20234;-56
2022/03/31 05:27:58;;;;;;;28.05;17.27;;;7.50;81.30;;;;;;5134421;27;20614;-56
2022/03/31 05:30:25;;;;;;;28.63;17.00;;;7.50;81.00;;;;;;5134143;27;20697;-56
2022/03/31 05:32:53;;;;;;;27.20;15.85;;;7.50;81.00;;;;;;5134145;27;20635;-56
2022/03/31 05:35:20;;;;;;;28.48;17.33;;;7.50;80.90;;;;;;5134233;27;20206;-56
2022/03/31 05:37:48;;;;;;;25.15;16.20;;;7.50;80.80;;;;;;5134019;27;20661;-56
2022/03/31 05:40:17;;;;;;;30.05;16.95;;;7.50;80.90;;;;;;5134035;27;20557;-56
2022/03/31 05:42:44;;;;;;;24.13;15.57;;;7.50;80.90;;;;;;5132856;27;20199;-56
2022/03/31 05:45:13;;;;;;;24.08;15.77;;;7.40;80.90;;;;;;5134077;27;20704;-57
2022/03/31 05:47:41;;;;;;;24.30;15.90;;;7.40;81.40;;;;;;5134035;27;20264;-56
2022/03/31 05:50:09;;;;;;;25.27;15.82;;;7.30;81.60;;;;;;5133868;27;20595;-56
2022/03/31 05:52:38;;;;;;;26.35;16.55;;;7.20;81.70;;;;;;5134017;27;20205;-56
2022/03/31 05:55:06;;;;;;;24.55;16.08;;;7.20;82.40;;;;;;5133703;27;20668;-56
2022/03/31 05:57:35;;;;;;;25.88;15.73;;;7.20;82.40;;;;;;5132697;27;20206;-56
2022/03/31 06:00:02;;;;;;;21.95;15.23;;;7.20;82.30;;;;;;5133781;27;20685;-56
2022/03/31 06:02:29;;;;;;;25.67;16.38;;;7.20;83.10;;;;;;5134015;27;20234;-56
2022/03/31 06:04:55;;;;;;;29.23;17.20;;;7.10;83.30;;;;;;5133720;27;20209;-56
2022/03/31 06:07:22;;;;;;;27.67;17.15;;;7.20;82.70;;;;;;5133834;27;20681;-56
2022/03/31 06:09:49;;;;;;;30.02;17.90;;;7.40;82.40;;;;;;5133704;27;20202;-56
2022/03/31 06:12:17;;;;;;;30.40;17.90;;;7.40;81.90;;;;;;5132295;27;20301;-56
2022/03/31 06:14:45;;;;;;;26.95;17.42;;;7.40;81.60;;;;;;5133685;27;20621;-56
2022/03/31 06:17:13;;;;;;;26.42;16.75;;;7.40;81.50;;;;;;5133334;27;20293;-56
2022/03/31 06:19:40;;;;;;;27.63;17.08;;;7.30;82.30;;;;;;5133535;27;20234;-56
2022/03/31 06:22:07;;;;;;;23.35;15.70;;;7.20;81.80;;;;;;5133607;27;20294;-56
2022/03/31 06:24:34;;;;;;;25.55;17.25;;;7.20;82.00;;;;;;5136244;27;20212;-56
2022/03/31 06:27:01;;;;;;;24.35;16.55;;;7.10;82.60;;;;;;5136556;27;20198;-56
2022/03/31 06:29:29;;;;;;;24.92;16.60;;;7.20;82.60;;;;;;5137592;27;20719;-56
2022/03/31 06:31:58;;;;;;;26.13;16.13;;;7.30;82.40;;;;;;5137915;27;20205;-56
2022/03/31 06:34:24;;;;;;;26.95;17.05;;;7.40;82.20;;;;;;5137574;27;20237;-56
2022/03/31 06:36:51;;;;;;;32.40;17.35;;;7.40;81.90;;;;;;5137560;27;20625;-56
2022/03/31 06:39:18;;;;;;;28.67;16.83;;;7.50;81.80;;;;;;5137373;27;20237;-56
2022/03/31 06:41:45;;;;;;;28.33;16.70;;;7.60;81.60;;;;;;5136121;27;20209;-56
2022/03/31 06:44:13;;;;;;;31.15;18.50;;;7.60;81.00;;;;;;5137418;27;20202;-56
2022/03/31 06:46:41;;;;;;;29.08;17.30;;;7.70;81.00;;;;;;5137413;27;20645;-56
2022/03/31 06:49:09;;;;;;;29.23;17.00;;;7.70;81.00;;;;;;5137458;27;20199;-56
2022/03/31 06:51:36;;;;;;;25.20;15.63;;;7.80;81.00;;;;;;5137503;27;20206;-56
2022/03/31 06:54:04;;;;;;;26.10;16.63;;;7.90;80.90;;;;;;5137229;27;20287;-56
2022/03/31 06:56:32;;;;;;;29.77;17.77;;;7.90;80.70;;;;;;5135919;27;20603;-56
2022/03/31 06:59:00;;;;;;;26.08;16.48;;;7.70;80.70;;;;;;5137108;27;20230;-56
2022/03/31 07:01:27;;;;;;;26.90;16.35;;;7.60;80.80;;;;;;5137247;27;20285;-56
2022/03/31 07:03:55;;;;;;;25.20;16.48;;;7.60;81.20;;;;;;5136986;27;20230;-56
2022/03/31 07:06:23;;;;;;;27.05;17.88;;;7.70;81.40;;;;;;5137142;27;20230;-56
2022/03/31 07:08:50;;;;;;;29.00;17.85;;;7.80;81.10;;;;;;5136968;27;20203;-56
2022/03/31 07:11:18;;;;;;;26.65;17.63;;;7.90;80.90;;;;;;5135570;27;20407;-56
2022/03/31 07:13:45;;;;;;;27.92;18.45;;;8.00;80.70;;;;;;5136824;27;20682;-56
2022/03/31 07:16:12;;;;;;;26.27;16.83;;;8.10;80.50;;;;;;5136733;27;20346;-56
2022/03/31 07:18:39;;;;;;;25.52;16.13;;;8.10;80.10;;;;;;5136795;27;20226;-56
2022/03/31 07:21:07;;;;;;;25.23;16.38;;;8.20;79.90;;;;;;5136784;27;20290;-56
2022/03/31 07:23:35;;;;;;;35.22;18.75;;;8.30;79.90;;;;;;5136706;27;20230;-56
2022/03/31 07:26:02;;;;;;;26.95;17.45;;;8.30;79.70;;;;;;5135167;27;20199;-58
2022/03/31 07:28:29;;;;;;;29.73;17.38;;;8.30;79.60;;;;;;5136612;27;20236;-56
2022/03/31 07:30:56;;;;;;;28.33;16.85;;;8.30;79.50;;;;;;5136530;27;20317;-56
2022/03/31 07:33:22;;;;;;;25.52;16.40;;;8.30;79.60;;;;;;5136468;27;20259;-56
2022/03/31 07:35:50;;;;;;;27.08;17.40;;;8.40;79.50;;;;;;5136411;27;20209;-56
2022/03/31 07:38:19;;;;;;;25.25;16.23;;;8.50;79.40;;;;;;5136459;27;20234;-56
2022/03/31 07:40:49;;;;;;;29.50;17.27;;;8.50;79.20;;;;;;5134729;27;20287;-56
2022/03/31 07:43:16;;;;;;;26.15;17.73;;;8.50;79.00;;;;;;5136497;27;20285;-56
2022/03/31 07:45:43;;;;;;;25.90;16.27;;;8.50;78.90;;;;;;5136177;27;20748;-56
2022/03/31 07:48:15;;;;;;;26.60;16.80;;;8.50;78.80;;;;;;5136296;27;20259;-57
2022/03/31 07:50:42;;;;;;;28.58;17.95;;;8.50;78.90;;;;;;5136263;27;20555;-56
2022/03/31 07:53:11;;;;;;;27.80;17.85;;;8.60;78.80;;;;;;5136205;27;20194;-56
2022/03/31 07:55:38;;;;;;;28.00;17.20;;;8.50;78.80;;;;;;5134692;27;20195;-56
2022/03/31 07:58:06;;;;;;;28.17;17.52;;;8.60;78.80;;;;;;5136023;27;20198;-56
2022/03/31 08:00:33;;;;;;;26.73;16.92;;;8.60;78.80;;;;;;5135792;27;20313;-56
2022/03/31 08:03:01;;;;;;;24.85;16.17;;;8.60;78.90;;;;;;5136036;27;20208;-58
2022/03/31 08:05:29;;;;;;;26.02;17.25;;;8.60;78.00;;;;;;5135823;27;20213;-56
2022/03/31 08:07:57;;;;;;;29.10;17.48;;;8.50;78.30;;;;;;5135715;27;20252;-55
2022/03/31 08:10:24;;;;;;;29.05;17.58;;;8.50;78.40;;;;;;5135598;27;20289;-55
2022/03/31 08:12:52;;;;;;;28.23;16.98;;;8.50;78.20;;;;;;5134754;27;20232;-55
2022/03/31 08:15:22;;;;;;;27.35;17.30;;;8.50;78.60;;;;;;5135650;27;20611;-56
2022/03/31 08:17:50;;;;;;;30.25;17.85;;;8.50;78.60;;;;;;5135609;27;20624;-56
2022/03/31 08:20:17;;;;;;;29.75;17.13;;;8.60;78.80;;;;;;5135428;27;20283;-55
2022/03/31 08:22:45;;;;;;;27.15;16.08;;;8.60;78.80;;;;;;5135531;27;20203;-58
2022/03/31 08:25:13;;;;;;;24.88;17.15;;;8.50;78.40;;;;;;5135339;27;20202;-58
2022/03/31 08:27:40;;;;;;;26.13;17.33;;;8.40;79.10;;;;;;5134062;27;20203;-58
2022/03/31 08:30:10;;;;;;;27.60;18.45;;;8.50;79.10;;;;;;5135548;27;20709;-58
2022/03/31 08:32:39;;;;;;;29.00;17.55;;;8.40;79.30;;;;;;5135360;27;20305;-58
2022/03/31 08:35:08;;;;;;;26.65;17.10;;;8.50;79.20;;;;;;5135106;27;20662;-57
2022/03/31 08:37:35;;;;;;;25.23;16.90;;;8.50;79.10;;;;;;5135312;27;20199;-58
2022/03/31 08:40:03;;;;;;;25.65;15.93;;;8.40;78.60;;;;;;5135062;27;20227;-58
2022/03/31 08:42:30;;;;;;;29.63;18.27;;;8.40;78.70;;;;;;5133964;27;20209;-58
2022/03/31 08:44:58;;;;;;;28.70;17.95;;;8.50;79.20;;;;;;5135132;27;20561;-58
2022/03/31 08:47:26;;;;;;;30.13;18.42;;;8.60;79.10;;;;;;5134404;27;20199;-58
2022/03/31 08:49:55;;;;;;;29.30;18.20;;;8.80;78.60;;;;;;5135007;27;20198;-57
2022/03/31 08:52:22;;;;;;;28.42;17.55;;;8.80;78.50;;;;;;5135023;27;20556;-58
2022/03/31 08:54:50;;;;;;;26.75;16.98;;;8.90;78.20;;;;;;5134864;27;20236;-58
2022/03/31 08:57:17;;;;;;;27.17;17.73;;;8.90;78.20;;;;;;5133412;27;20290;-58
2022/03/31 08:59:44;;;;;;;34.67;18.70;;;8.90;78.00;;;;;;5134806;27;20231;-58
2022/03/31 09:02:23;;;;;;;26.15;16.48;;;9.00;78.10;;;;;;5134683;27;20283;-57
2022/03/31 09:05:01;;;;;;;29.33;18.33;;;9.00;78.10;;;;;;5134656;27;20203;-58
2022/03/31 09:07:28;;;;;;;26.90;17.67;;;9.10;78.70;;;;;;5134595;27;20219;-58
2022/03/31 09:09:55;;;;;;;26.10;17.80;;;9.10;78.00;;;;;;5134518;27;20210;-58
2022/03/31 09:12:26;;;;;;;26.50;17.30;;;9.20;78.10;;;;;;5133094;27;20234;-58
2022/03/31 09:14:54;;;;;;;27.25;18.05;;;9.20;79.30;;;;;;5134560;27;20206;-58
2022/03/31 09:17:21;;;;;;;26.02;17.88;;;9.20;79.00;;;;;;5134463;27;20624;-58
2022/03/31 09:19:48;;;;;;;26.67;17.83;;;9.20;78.80;;;;;;5134413;27;20226;-58
2022/03/31 09:22:16;;;;;;;29.17;19.08;;;9.40;78.30;;;;;;5134430;27;20205;-58
2022/03/31 09:24:43;;;;;;;26.65;18.35;;;9.60;77.80;;;;;;5134170;27;20203;-58
2022/03/31 09:27:10;;;;;;;25.02;16.65;;;9.60;77.30;;;;;;5132810;27;20251;-58
2022/03/31 09:29:37;;;;;;;26.40;17.17;;;9.70;77.20;;;;;;5134190;27;20230;-58
2022/03/31 09:32:08;;;;;;;28.15;18.63;;;9.70;76.30;;;;;;5134237;27;20202;-58
2022/03/31 09:34:43;;;;;;;26.83;19.15;;;9.70;77.00;;;;;;5134235;27;20332;-58
2022/03/31 09:37:10;;;;;;;24.85;18.00;;;9.90;76.60;;;;;;5134245;27;20198;-58
2022/03/31 09:39:39;;;;;;;28.20;19.00;;;9.90;75.80;;;;;;5134083;27;20222;-58
2022/03/31 09:42:12;;;;;;;27.88;18.67;;;9.90;76.80;;;;;;5132797;27;20199;-58
2022/03/31 09:44:41;;;;;;;31.05;21.10;;;10.10;76.60;;;;;;5134161;27;20199;-58
2022/03/31 09:47:09;;;;;;;30.23;18.40;;;10.10;76.70;;;;;;5134137;27;20657;-58
2022/03/31 09:49:36;;;;;;;26.92;18.15;;;10.10;76.00;;;;;;5134020;27;20241;-58
2022/03/31 09:52:06;;;;;;;28.33;18.42;;;10.10;75.70;;;;;;5133734;27;20670;-58
2022/03/31 09:54:34;;;;;;;27.92;18.50;;;10.20;76.20;;;;;;5133911;27;20202;-58
2022/03/31 09:57:06;;;;;;;23.98;17.55;;;10.30;75.70;;;;;;5132405;27;20195;-58
2022/03/31 09:59:35;;;;;;;26.33;19.20;;;10.40;75.90;;;;;;5132903;27;20283;-58
2022/03/31 10:02:03;;;;;;;29.77;20.10;;;10.50;75.10;;;;;;5133617;27;20245;-58
2022/03/31 10:04:31;;;;;;;29.15;18.13;;;10.30;76.30;;;;;;5133688;27;20233;-58
2022/03/31 10:06:59;;;;;;;30.35;18.33;;;10.50;75.50;;;;;;5133684;27;20657;-58
2022/03/31 10:09:26;;;;;;;25.92;18.27;;;10.60;74.90;;;;;;5133688;27;20301;-58
2022/03/31 10:11:59;;;;;;;29.83;18.63;;;10.90;74.90;;;;;;5132443;27;20220;-58
2022/03/31 10:14:33;;;;;;;27.13;19.27;;;10.80;74.00;;;;;;5133734;27;20229;-58
2022/03/31 10:17:03;;;;;;;29.00;19.67;;;10.90;74.80;;;;;;5133625;27;20290;-57
2022/03/31 10:19:32;;;;;;;27.13;19.00;;;11.10;74.00;;;;;;5133448;27;20250;-58
2022/03/31 10:22:04;;;;;;;24.75;18.45;;;11.30;73.70;;;;;;5133617;27;20526;-58
2022/03/31 10:24:44;;;;;;;31.27;20.60;;;11.30;73.70;;;;;;5133652;27;20285;-58
2022/03/31 10:27:15;;;;;;;26.33;19.98;;;11.40;73.30;;;;;;5132125;27;20205;-58
2022/03/31 10:29:45;;;;;;;25.13;19.65;;;11.40;72.80;;;;;;5133299;27;20247;-58
2022/03/31 10:32:21;;;;;;;24.95;18.33;;;11.20;71.40;;;;;;5133531;27;20194;-58
2022/03/31 10:34:49;;;;;;;26.13;19.92;;;11.00;73.20;;;;;;5133387;27;20202;-58
2022/03/31 10:37:18;;;;;;;25.98;19.45;;;11.00;73.30;;;;;;5133548;27;20199;-58
2022/03/31 10:39:56;;;;;;;24.92;19.35;;;11.10;73.50;;;;;;5133432;27;20230;-58
2022/03/31 10:42:23;;;;;;;31.30;20.52;;;11.20;73.10;;;;;;5131912;27;20593;-58
2022/03/31 10:45:06;;;;;;;27.10;19.73;;;11.20;73.00;;;;;;5133469;27;20203;-58
2022/03/31 10:47:34;;;;;;;28.35;19.83;;;11.30;73.10;;;;;;5133323;27;20203;-58
2022/03/31 10:50:01;;;;;;;27.90;19.98;;;11.40;73.00;;;;;;5124466;27;20210;-58
2022/03/31 10:52:28;;;;;;;29.23;19.40;;;11.40;73.10;;;;;;5129394;27;20541;-58
2022/03/31 10:55:06;;;;;;;28.10;20.77;;;11.50;72.90;;;;;;5133323;27;20278;-58
2022/03/31 10:57:42;;;;;;;31.30;20.63;;;11.70;72.40;;;;;;5131985;27;20207;-58
2022/03/31 11:00:12;;;;;;;29.80;19.92;;;11.70;71.90;;;;;;5133288;27;20580;-58
2022/03/31 11:02:44;;;;;;;28.60;20.35;;;11.80;72.30;;;;;;5133227;27;20202;-58
2022/03/31 11:05:12;;;;;;;31.15;21.17;;;11.80;71.60;;;;;;5132985;27;20244;-58
2022/03/31 11:07:39;;;;;;;26.55;19.70;;;11.90;71.50;;;;;;5133250;27;20290;-58
2022/03/31 11:10:08;;;;;;;28.00;21.20;;;12.00;72.10;;;;;;5134992;27;20290;-58
2022/03/31 11:12:36;;;;;;;26.58;18.58;;;12.10;71.70;;;;;;5135592;27;20290;-58
2022/03/31 11:15:07;;;;;;;32.13;21.13;;;12.10;70.90;;;;;;5137000;27;20206;-58
2022/03/31 11:17:36;;;;;;;27.70;19.15;;;12.00;71.20;;;;;;5136765;27;20250;-58
2022/03/31 11:20:13;;;;;;;26.92;17.67;;;12.10;71.60;;;;;;5136627;27;20707;-58
2022/03/31 11:22:46;;;;;;;29.60;20.48;;;11.90;71.80;;;;;;5136765;27;20199;-58
2022/03/31 11:25:14;;;;;;;34.83;21.95;;;12.00;71.90;;;;;;5136811;27;20235;-59
2022/03/31 11:27:42;;;;;;;28.98;20.02;;;12.10;71.40;;;;;;5135418;27;20671;-58
2022/03/31 11:30:12;;;;;;;30.20;20.00;;;12.10;71.40;;;;;;5136361;27;20237;-58
2022/03/31 11:32:42;;;;;;;26.20;19.63;;;12.10;71.20;;;;;;5136679;27;20284;-58
2022/03/31 11:35:14;;;;;;;27.77;20.02;;;12.10;70.90;;;;;;5136382;27;20297;-58
2022/03/31 11:37:48;;;;;;;26.60;20.23;;;12.00;71.40;;;;;;5136490;27;20553;-58
2022/03/31 11:40:20;;;;;;;26.40;18.80;;;12.00;71.20;;;;;;5136379;27;20320;-58
2022/03/31 11:42:48;;;;;;;27.58;20.42;;;11.90;71.60;;;;;;5134820;27;20203;-58
2022/03/31 11:45:30;;;;;;;27.83;20.20;;;11.90;71.70;;;;;;5136326;27;20198;-58
2022/03/31 11:48:01;;;;;;;24.90;18.75;;;11.90;71.50;;;;;;5136212;27;20672;-58
2022/03/31 11:50:29;;;;;;;29.17;20.60;;;11.80;71.50;;;;;;5136134;27;20230;-58
2022/03/31 11:52:56;;;;;;;28.17;19.80;;;11.90;71.60;;;;;;5136052;27;20205;-58
2022/03/31 11:55:23;;;;;;;29.70;20.25;;;11.90;71.60;;;;;;5136080;27;20241;-58
2022/03/31 11:57:54;;;;;;;29.83;20.55;;;11.90;71.80;;;;;;5134790;27;20677;-58
2022/03/31 12:00:23;;;;;;;33.42;21.23;;;11.80;71.60;;;;;;5135992;27;20592;-58
2022/03/31 12:03:03;;;;;;;26.55;19.20;;;11.60;72.10;;;;;;5136022;27;20194;-58
2022/03/31 12:05:31;;;;;;;30.60;20.50;;;11.70;71.90;;;;;;5135686;27;20222;-58
2022/03/31 12:07:59;;;;;;;31.33;20.75;;;11.70;71.70;;;;;;5135818;27;20238;-58
2022/03/31 12:10:27;;;;;;;26.30;18.42;;;11.70;71.50;;;;;;5135509;27;20565;-58
2022/03/31 12:12:55;;;;;;;29.77;21.38;;;11.60;71.50;;;;;;5135199;27;20198;-58
2022/03/31 12:15:25;;;;;;;26.50;18.98;;;11.60;72.00;;;;;;5135784;27;20198;-58
2022/03/31 12:18:08;;;;;;;28.15;20.83;;;11.70;72.20;;;;;;5135787;27;20211;-58
2022/03/31 12:20:37;;;;;;;28.40;19.75;;;11.80;72.10;;;;;;5134967;27;20234;-58
2022/03/31 12:23:16;;;;;;;29.17;19.75;;;11.80;71.30;;;;;;5135107;27;20213;-58
2022/03/31 12:25:43;;;;;;;26.23;18.75;;;11.90;72.00;;;;;;5134392;27;20203;-58
2022/03/31 12:28:10;;;;;;;24.55;19.67;;;12.10;71.60;;;;;;5135524;27;20194;-58
2022/03/31 12:30:45;;;;;;;28.23;19.15;;;12.00;72.10;;;;;;5135297;27;20322;-58
2022/03/31 12:33:35;;;;;;;26.38;18.77;;;12.00;71.60;;;;;;5135387;27;20602;-58
2022/03/31 12:36:05;;;;;;;26.77;19.83;;;12.10;71.90;;;;;;5130793;27;20298;-58
2022/03/31 12:38:37;;;;;;;28.20;20.10;;;12.00;72.10;;;;;;5135190;27;20286;-58
2022/03/31 12:41:07;;;;;;;26.80;19.92;;;12.00;72.20;;;;;;5133846;27;20671;-58
2022/03/31 12:43:34;;;;;;;27.65;20.33;;;12.10;71.60;;;;;;5135291;27;20735;-58